Maersk Iowa — KABL — position and weather

sailwx.info

Track history (hours):
 
Tides and Currents Weather Stations Pressure Air Temp Water Temp Dewpoint Dewpoint Depression Visibility Wind Speed Wind Dir Waves Ship Positions

Maersk Iowa

Owner: Maersk Line, Limited, Norfolk, VA. More information available from US FCC via Universal Licensing System and Coast Guard Vessel Documentation Center.

Last reported at 2018-Feb-20 13:47 UTC. Time now 2018-Feb-21 03:39 UTC.
Position N 36°51' W 075°44'.

Length 292 m; draft 11.4 m.

Type: Ship (hazmat cat D). MMSI: 367606000.

Date/timePositionNaut miles runAvg speedWind from/ knotsBaromVisibWave heightAir tempDewpointWater temp
2018-Feb-20 13:47N 36°51' W 075°44'4 8.5
2018-Feb-20 13:16N 36°47' W 075°43'2 9.0
2018-Feb-20 13:00N 36°45' W 075°41'5 4.9
2018-Feb-20 12:00N 36°42' W 075°36'110 9.1 150 / 51031.8 0.3 13.013.0 7.5
2018-Feb-20 00:00N 34°54' W 075°12'20717.2 170 / 191031.610.8 23.018.325.0
2018-Feb-19 12:00N 32°06' W 077°36'18415.3 120 / 151028.510.8 22.018.925.7
2018-Feb-19 00:00N 29°30' W 079°30'14416.8 070 / 151024.810.8 24.017.726.0
2018-Feb-18 15:23N 27°06' W 079°45'718.3
2018-Feb-18 14:59N 26°59' W 079°46'918.2
2018-Feb-18 14:31N 26°50' W 079°46'2118.0
2018-Feb-18 13:21N 26°30' W 079°49'618.0
2018-Feb-18 13:00N 26°24' W 079°50'917.9
2018-Feb-18 12:31N 26°15' W 079°51'918.1
2018-Feb-18 12:00N 26°06' W 079°52'7431.0
2018-Feb-18 12:00N 26°00' W 079°48'511.0 100 / 101023.310.8 24.021.026.0
2018-Feb-18 11:30N 25°56' W 079°52'918.9
2018-Feb-18 11:01N 25°47' W 079°53'918.6
2018-Feb-18 10:31N 25°38' W 079°54'918.1
2018-Feb-18 10:00N 25°29' W 079°55'918.0
2018-Feb-18 09:30N 25°20' W 079°59'15316.1
2018-Feb-18 00:00N 24°12' W 082°30'17914.9 090 / 101022.710.8 25.017.026.0
2018-Feb-17 12:00N 25°12' W 085°36'18215.2 120 / 191021.710.8 23.016.526.0
2018-Feb-17 00:00N 26°24' W 088°42'16914.0 180 / 21021.210.8 24.017.727.0
2018-Feb-16 12:00N 27°30' W 091°36'10014.1 180 / 181020.910.8 22.020.524.7
2018-Feb-16 04:55N 28°24' W 093°12'2614.1
2018-Feb-16 03:03N 28°39' W 093°36'114.1
2018-Feb-16 03:00N 28°39' W 093°36'1014.2
2018-Feb-16 02:20N 28°45' W 093°45'514.2
2018-Feb-16 01:59N 28°48' W 093°50'714.1
2018-Feb-16 01:30N 28°51' W 093°57'714.2
2018-Feb-16 01:00N 28°52' W 094°05'714.1
2018-Feb-16 00:30N 28°54' W 094°13'714.2
2018-Feb-16 00:00N 28°55' W 094°21'2199.2
2018-Feb-16 00:00N 28°54' W 094°18'1315.1 190 / 121019.4 0.5 21.019.417.0
2018-Feb-15 23:07N 29°06' W 094°26'213.9
2018-Feb-15 22:59N 29°07' W 094°26'814.3
2018-Feb-15 22:24N 29°14' W 094°32'614.2
2018-Feb-15 21:57N 29°18' W 094°37'613.5
2018-Feb-15 21:30N 29°21' W 094°44'610.9
2018-Feb-15 20:57N 29°24' W 094°49'1012.5
2018-Feb-15 20:07N 29°33' W 094°55'112.3
2018-Feb-15 20:00N 29°35' W 094°56'4 8.1
2018-Feb-15 19:30N 29°37' W 094°60'1 1.4
2018-Feb-15 19:00N 29°37' W 095°00'0 0.0
2018-Feb-15 17:59N 29°37' W 095°00'0 0.0
2018-Feb-15 17:29N 29°37' W 095°00'0 0.0
2018-Feb-15 16:59N 29°37' W 095°00'0 0.0
2018-Feb-15 16:29N 29°37' W 095°00'0 0.0
2018-Feb-15 15:53N 29°37' W 095°00'0 0.0
2018-Feb-15 15:29N 29°37' W 095°00'0 0.0
2018-Feb-15 14:59N 29°37' W 095°00'0 0.0
2018-Feb-15 14:29N 29°37' W 095°00'0 0.0
2018-Feb-15 13:59N 29°37' W 095°00'0 0.0
2018-Feb-15 13:26N 29°37' W 095°00'0 0.0
2018-Feb-15 12:59N 29°37' W 095°00'0 0.0
2018-Feb-15 12:29N 29°37' W 095°00'0 0.0
2018-Feb-15 11:59N 29°37' W 095°00'0 0.0
2018-Feb-15 11:29N 29°37' W 095°00'0 0.0
2018-Feb-15 10:59N 29°37' W 095°00'0 0.0
2018-Feb-15 10:29N 29°37' W 095°00'0 0.0
2018-Feb-15 09:59N 29°37' W 095°00'0 0.0
2018-Feb-15 09:29N 29°37' W 095°00'0 0.0
2018-Feb-15 08:59N 29°37' W 095°00'0 0.0
2018-Feb-15 08:29N 29°37' W 095°00'0 0.0
2018-Feb-15 07:59N 29°37' W 095°00'0 0.0
2018-Feb-15 07:29N 29°37' W 095°00'0 0.0
2018-Feb-15 06:59N 29°37' W 095°00'0 0.0
2018-Feb-15 06:29N 29°37' W 095°00'0 0.0
2018-Feb-15 05:59N 29°37' W 095°00'0 0.0
2018-Feb-15 05:29N 29°37' W 095°00'0 0.0
2018-Feb-15 04:59N 29°37' W 095°00'0 0.0
2018-Feb-15 04:29N 29°37' W 095°00'0 0.0
2018-Feb-15 03:59N 29°37' W 095°00'0 0.0
2018-Feb-15 03:23N 29°37' W 095°00'0 0.0
2018-Feb-15 02:59N 29°37' W 095°00'0 0.0
2018-Feb-15 02:29N 29°37' W 095°00'0 0.0
2018-Feb-15 01:56N 29°37' W 095°00'0 0.0
2018-Feb-15 01:29N 29°37' W 095°00'0 0.0
2018-Feb-15 00:59N 29°37' W 095°00'0 0.0
2018-Feb-15 00:29N 29°37' W 095°00'0 0.0
2018-Feb-14 23:59N 29°37' W 095°00'0 0.0
2018-Feb-14 23:26N 29°37' W 095°00'0 0.0
2018-Feb-14 22:53N 29°37' W 095°00'0 0.0
2018-Feb-14 22:29N 29°37' W 095°00'0 0.0
2018-Feb-14 21:59N 29°37' W 095°00'0 0.0
2018-Feb-14 21:29N 29°37' W 095°00'0 0.0
2018-Feb-14 20:59N 29°37' W 095°00'0 0.0
2018-Feb-14 20:29N 29°37' W 095°00'0 0.0
2018-Feb-14 19:59N 29°37' W 095°00'0 0.0
2018-Feb-14 19:29N 29°37' W 095°00'0 0.0
2018-Feb-14 18:59N 29°37' W 095°00'0 0.0
2018-Feb-14 18:29N 29°37' W 095°00'0 0.0
2018-Feb-14 17:59N 29°37' W 095°00'0 0.0
2018-Feb-14 17:29N 29°37' W 095°00'0 0.0
2018-Feb-14 16:59N 29°37' W 095°00'0 0.0
2018-Feb-14 16:29N 29°37' W 095°00'0 0.0
2018-Feb-14 15:59N 29°37' W 095°00'0 0.0
2018-Feb-14 15:29N 29°37' W 095°00'0 0.0
2018-Feb-14 14:59N 29°37' W 095°00'0 0.0
2018-Feb-14 11:38N 29°37' W 095°00'0 0.1
2018-Feb-14 11:26N 29°37' W 095°00'0 0.0
2018-Feb-14 10:56N 29°37' W 095°00'0 0.0
2018-Feb-14 10:29N 29°37' W 095°00'0 0.0
2018-Feb-14 09:59N 29°37' W 095°00'0 0.0
2018-Feb-14 09:29N 29°37' W 095°00'0 0.0
2018-Feb-14 08:59N 29°37' W 095°00'0 0.0
2018-Feb-14 08:29N 29°37' W 095°00'0 0.0
2018-Feb-14 07:59N 29°37' W 095°00'0 0.0
2018-Feb-14 07:26N 29°37' W 095°00'0 0.0
2018-Feb-14 06:59N 29°37' W 095°00'0 0.0
2018-Feb-14 06:29N 29°37' W 095°00'0 0.0
2018-Feb-14 05:56N 29°37' W 095°00'0 0.0
2018-Feb-14 05:29N 29°37' W 095°00'0 0.0
2018-Feb-14 04:59N 29°37' W 095°00'0 0.0
2018-Feb-14 04:29N 29°37' W 095°00'0 0.0
2018-Feb-14 03:59N 29°37' W 095°00'0 0.0
2018-Feb-14 03:29N 29°37' W 095°00'0 0.0
2018-Feb-14 02:59N 29°37' W 095°00'0 0.0
2018-Feb-14 02:29N 29°37' W 095°00'0 0.0
2018-Feb-14 01:59N 29°37' W 095°00'0 0.0
2018-Feb-14 01:29N 29°37' W 095°00'0 0.0
2018-Feb-14 00:59N 29°37' W 095°00'0 0.0
2018-Feb-14 00:29N 29°37' W 095°00'0 0.0
2018-Feb-13 23:56N 29°37' W 095°00'0 0.0
2018-Feb-13 23:23N 29°37' W 095°00'0 0.0
2018-Feb-13 22:59N 29°37' W 095°00'0 0.0
2018-Feb-13 22:29N 29°37' W 095°00'0 0.0
2018-Feb-13 21:56N 29°37' W 095°00'0 0.0
2018-Feb-13 21:29N 29°37' W 095°00'0 0.0
2018-Feb-13 20:59N 29°37' W 095°00'0 0.0
2018-Feb-13 20:29N 29°37' W 095°00'0 0.0
2018-Feb-13 19:59N 29°37' W 095°00'0 0.0
2018-Feb-13 19:29N 29°37' W 095°00'0 0.0
2018-Feb-13 18:59N 29°37' W 095°00'0 0.0
2018-Feb-13 18:29N 29°37' W 095°00'1 1.1
2018-Feb-13 17:59N 29°37' W 095°01'0 0.1
2018-Feb-13 17:31N 29°37' W 095°01'3 5.3
2018-Feb-13 17:00N 29°37' W 094°58'3 6.2
2018-Feb-13 16:30N 29°34' W 094°56'510.2
2018-Feb-13 16:00N 29°30' W 094°52'611.3
2018-Feb-13 15:28N 29°25' W 094°49'19 0.5
2018-Feb-11 23:19N 29°18' W 094°29'3 0.3
2018-Feb-11 12:50N 29°16' W 094°32'3 8.4
2018-Feb-11 12:25N 29°14' W 094°29'7010.2
2018-Feb-11 05:34N 28°33' W 093°24'6611.8
2018-Feb-11 00:00N 27°48' W 092°30'   190 / 151012.8 2.2 22.020.522.0
Track history (hours):
 
Tides and Currents Weather Stations Pressure Air Temp Water Temp Dewpoint Dewpoint Depression Visibility Wind Speed Wind Dir Waves Ship Positions

Maersk Iowa

Owner: Maersk Line, Limited, Norfolk, VA. More information available from US FCC via Universal Licensing System and Coast Guard Vessel Documentation Center.

Last reported at 2018-Feb-20 13:47 UTC. Time now 2018-Feb-21 03:39 UTC.
Position N 36°51' W 075°44'.

Length 292 m; draft 11.4 m.

Type: Ship (hazmat cat D). MMSI: 367606000.

Date/timePositionNaut miles runAvg speedWind from/ knotsBaromVisibWave heightAir tempDewpointWater temp
2018-Feb-20 13:47N 36°51' W 075°44'4 8.5
2018-Feb-20 13:16N 36°47' W 075°43'2 9.0
2018-Feb-20 13:00N 36°45' W 075°41'5 4.9
2018-Feb-20 12:00N 36°42' W 075°36'110 9.1 150 / 51031.8 0.3 13.013.0 7.5
2018-Feb-20 00:00N 34°54' W 075°12'20717.2 170 / 191031.610.8 23.018.325.0
2018-Feb-19 12:00N 32°06' W 077°36'18415.3 120 / 151028.510.8 22.018.925.7
2018-Feb-19 00:00N 29°30' W 079°30'14416.8 070 / 151024.810.8 24.017.726.0
2018-Feb-18 15:23N 27°06' W 079°45'718.3
2018-Feb-18 14:59N 26°59' W 079°46'918.2
2018-Feb-18 14:31N 26°50' W 079°46'2118.0
2018-Feb-18 13:21N 26°30' W 079°49'618.0
2018-Feb-18 13:00N 26°24' W 079°50'917.9
2018-Feb-18 12:31N 26°15' W 079°51'918.1
2018-Feb-18 12:00N 26°06' W 079°52'7431.0
2018-Feb-18 12:00N 26°00' W 079°48'511.0 100 / 101023.310.8 24.021.026.0
2018-Feb-18 11:30N 25°56' W 079°52'918.9
2018-Feb-18 11:01N 25°47' W 079°53'918.6
2018-Feb-18 10:31N 25°38' W 079°54'918.1
2018-Feb-18 10:00N 25°29' W 079°55'918.0
2018-Feb-18 09:30N 25°20' W 079°59'15316.1
2018-Feb-18 00:00N 24°12' W 082°30'17914.9 090 / 101022.710.8 25.017.026.0
2018-Feb-17 12:00N 25°12' W 085°36'18215.2 120 / 191021.710.8 23.016.526.0
2018-Feb-17 00:00N 26°24' W 088°42'16914.0 180 / 21021.210.8 24.017.727.0
2018-Feb-16 12:00N 27°30' W 091°36'10014.1 180 / 181020.910.8 22.020.524.7
2018-Feb-16 04:55N 28°24' W 093°12'2614.1
2018-Feb-16 03:03N 28°39' W 093°36'114.1
2018-Feb-16 03:00N 28°39' W 093°36'1014.2
2018-Feb-16 02:20N 28°45' W 093°45'514.2
2018-Feb-16 01:59N 28°48' W 093°50'714.1
2018-Feb-16 01:30N 28°51' W 093°57'714.2
2018-Feb-16 01:00N 28°52' W 094°05'714.1
2018-Feb-16 00:30N 28°54' W 094°13'714.2
2018-Feb-16 00:00N 28°55' W 094°21'2199.2
2018-Feb-16 00:00N 28°54' W 094°18'1315.1 190 / 121019.4 0.5 21.019.417.0
2018-Feb-15 23:07N 29°06' W 094°26'213.9
2018-Feb-15 22:59N 29°07' W 094°26'814.3
2018-Feb-15 22:24N 29°14' W 094°32'614.2
2018-Feb-15 21:57N 29°18' W 094°37'613.5
2018-Feb-15 21:30N 29°21' W 094°44'610.9
2018-Feb-15 20:57N 29°24' W 094°49'1012.5
2018-Feb-15 20:07N 29°33' W 094°55'112.3
2018-Feb-15 20:00N 29°35' W 094°56'4 8.1
2018-Feb-15 19:30N 29°37' W 094°60'1 1.4
2018-Feb-15 19:00N 29°37' W 095°00'0 0.0
2018-Feb-15 17:59N 29°37' W 095°00'0 0.0
2018-Feb-15 17:29N 29°37' W 095°00'0 0.0
2018-Feb-15 16:59N 29°37' W 095°00'0 0.0
2018-Feb-15 16:29N 29°37' W 095°00'0 0.0
2018-Feb-15 15:53N 29°37' W 095°00'0 0.0
2018-Feb-15 15:29N 29°37' W 095°00'0 0.0
2018-Feb-15 14:59N 29°37' W 095°00'0 0.0
2018-Feb-15 14:29N 29°37' W 095°00'0 0.0
2018-Feb-15 13:59N 29°37' W 095°00'0 0.0
2018-Feb-15 13:26N 29°37' W 095°00'0 0.0
2018-Feb-15 12:59N 29°37' W 095°00'0 0.0
2018-Feb-15 12:29N 29°37' W 095°00'0 0.0
2018-Feb-15 11:59N 29°37' W 095°00'0 0.0
2018-Feb-15 11:29N 29°37' W 095°00'0 0.0
2018-Feb-15 10:59N 29°37' W 095°00'0 0.0
2018-Feb-15 10:29N 29°37' W 095°00'0 0.0
2018-Feb-15 09:59N 29°37' W 095°00'0 0.0
2018-Feb-15 09:29N 29°37' W 095°00'0 0.0
2018-Feb-15 08:59N 29°37' W 095°00'0 0.0
2018-Feb-15 08:29N 29°37' W 095°00'0 0.0
2018-Feb-15 07:59N 29°37' W 095°00'0 0.0
2018-Feb-15 07:29N 29°37' W 095°00'0 0.0
2018-Feb-15 06:59N 29°37' W 095°00'0 0.0
2018-Feb-15 06:29N 29°37' W 095°00'0 0.0
2018-Feb-15 05:59N 29°37' W 095°00'0 0.0
2018-Feb-15 05:29N 29°37' W 095°00'0 0.0
2018-Feb-15 04:59N 29°37' W 095°00'0 0.0
2018-Feb-15 04:29N 29°37' W 095°00'0 0.0
2018-Feb-15 03:59N 29°37' W 095°00'0 0.0
2018-Feb-15 03:23N 29°37' W 095°00'0 0.0
2018-Feb-15 02:59N 29°37' W 095°00'0 0.0
2018-Feb-15 02:29N 29°37' W 095°00'0 0.0
2018-Feb-15 01:56N 29°37' W 095°00'0 0.0
2018-Feb-15 01:29N 29°37' W 095°00'0 0.0
2018-Feb-15 00:59N 29°37' W 095°00'0 0.0
2018-Feb-15 00:29N 29°37' W 095°00'0 0.0
2018-Feb-14 23:59N 29°37' W 095°00'0 0.0
2018-Feb-14 23:26N 29°37' W 095°00'0 0.0
2018-Feb-14 22:53N 29°37' W 095°00'0 0.0
2018-Feb-14 22:29N 29°37' W 095°00'0 0.0
2018-Feb-14 21:59N 29°37' W 095°00'0 0.0
2018-Feb-14 21:29N 29°37' W 095°00'0 0.0
2018-Feb-14 20:59N 29°37' W 095°00'0 0.0
2018-Feb-14 20:29N 29°37' W 095°00'0 0.0
2018-Feb-14 19:59N 29°37' W 095°00'0 0.0
2018-Feb-14 19:29N 29°37' W 095°00'0 0.0
2018-Feb-14 18:59N 29°37' W 095°00'0 0.0
2018-Feb-14 18:29N 29°37' W 095°00'0 0.0
2018-Feb-14 17:59N 29°37' W 095°00'0 0.0
2018-Feb-14 17:29N 29°37' W 095°00'0 0.0
2018-Feb-14 16:59N 29°37' W 095°00'0 0.0
2018-Feb-14 16:29N 29°37' W 095°00'0 0.0
2018-Feb-14 15:59N 29°37' W 095°00'0 0.0
2018-Feb-14 15:29N 29°37' W 095°00'0 0.0
2018-Feb-14 14:59N 29°37' W 095°00'0 0.0
2018-Feb-14 11:38N 29°37' W 095°00'0 0.1
2018-Feb-14 11:26N 29°37' W 095°00'0 0.0
2018-Feb-14 10:56N 29°37' W 095°00'0 0.0
2018-Feb-14 10:29N 29°37' W 095°00'0 0.0
2018-Feb-14 09:59N 29°37' W 095°00'0 0.0
2018-Feb-14 09:29N 29°37' W 095°00'0 0.0
2018-Feb-14 08:59N 29°37' W 095°00'0 0.0
2018-Feb-14 08:29N 29°37' W 095°00'0 0.0
2018-Feb-14 07:59N 29°37' W 095°00'0 0.0
2018-Feb-14 07:26N 29°37' W 095°00'0 0.0
2018-Feb-14 06:59N 29°37' W 095°00'0 0.0
2018-Feb-14 06:29N 29°37' W 095°00'0 0.0
2018-Feb-14 05:56N 29°37' W 095°00'0 0.0
2018-Feb-14 05:29N 29°37' W 095°00'0 0.0
2018-Feb-14 04:59N 29°37' W 095°00'0 0.0
2018-Feb-14 04:29N 29°37' W 095°00'0 0.0
2018-Feb-14 03:59N 29°37' W 095°00'0 0.0
2018-Feb-14 03:29N 29°37' W 095°00'0 0.0
2018-Feb-14 02:59N 29°37' W 095°00'0 0.0
2018-Feb-14 02:29N 29°37' W 095°00'0 0.0
2018-Feb-14 01:59N 29°37' W 095°00'0 0.0
2018-Feb-14 01:29N 29°37' W 095°00'0 0.0
2018-Feb-14 00:59N 29°37' W 095°00'0 0.0
2018-Feb-14 00:29N 29°37' W 095°00'0 0.0
2018-Feb-13 23:56N 29°37' W 095°00'0 0.0
2018-Feb-13 23:23N 29°37' W 095°00'0 0.0
2018-Feb-13 22:59N 29°37' W 095°00'0 0.0
2018-Feb-13 22:29N 29°37' W 095°00'0 0.0
2018-Feb-13 21:56N 29°37' W 095°00'0 0.0
2018-Feb-13 21:29N 29°37' W 095°00'0 0.0
2018-Feb-13 20:59N 29°37' W 095°00'0 0.0
2018-Feb-13 20:29N 29°37' W 095°00'0 0.0
2018-Feb-13 19:59N 29°37' W 095°00'0 0.0
2018-Feb-13 19:29N 29°37' W 095°00'0 0.0
2018-Feb-13 18:59N 29°37' W 095°00'0 0.0
2018-Feb-13 18:29N 29°37' W 095°00'1 1.1
2018-Feb-13 17:59N 29°37' W 095°01'0 0.1
2018-Feb-13 17:31N 29°37' W 095°01'3 5.3
2018-Feb-13 17:00N 29°37' W 094°58'3 6.2
2018-Feb-13 16:30N 29°34' W 094°56'510.2
2018-Feb-13 16:00N 29°30' W 094°52'611.3
2018-Feb-13 15:28N 29°25' W 094°49'19 0.5
2018-Feb-11 23:19N 29°18' W 094°29'3 0.3
2018-Feb-11 12:50N 29°16' W 094°32'3 8.4
2018-Feb-11 12:25N 29°14' W 094°29'7010.2
2018-Feb-11 05:34N 28°33' W 093°24'6611.8
2018-Feb-11 00:00N 27°48' W 092°30'   190 / 151012.8 2.2 22.020.522.0

Dump ship's entire track history